Terminal Aerodrome Forecast
Issued by NWS

Home | Current Version | Previous Version | Text Only | Print | Product List | Glossary On
Versions: 1 2 3 4 5 6 7 8 9 10 11 12 13
000
FTUS44 KTSA 111505 AAA
TAFBVO
TAF AMD
KBVO 111505Z 1115/1212 25010KT P6SM SKC
     FM111900 32012G19KT P6SM SCT250
     FM120000 34008KT P6SM FEW250=

USA.gov is the U.S. government's official web portal to all federal, state and local government web resources and services.